Time;durP1;ratioP1;P1;durP2;ratioP2;P2;SDS_P1;SDS_P2;PMS_P1;PMS_P2;Temp;Humidity;BMP_temperature;BMP_pressure;BME280_temperature;BME280_humidity;BME280_pressure;Samples;Min_cycle;Max_cycle;Signal;HPM_P1;HPM_P2
2023/06/09 00:01:44;;;;;;;;;2.33;2.33;;;;;25.07;47.94;99242.63;5038535;28;45227;-81
2023/06/09 00:04:13;;;;;;;;;3.00;3.00;;;;;25.01;48.50;99232.25;5034137;28;45359;-81
2023/06/09 00:06:39;;;;;;;;;2.33;2.33;;;;;24.93;47.87;99234.44;5058020;28;45667;-80
2023/06/09 00:09:06;;;;;;;;;2.00;2.00;;;;;24.86;48.35;99233.88;5035937;28;47851;-80
2023/06/09 00:11:32;;;;;;;;;3.67;3.00;;;;;24.71;49.10;99227.50;5038191;28;45383;-81
2023/06/09 00:13:58;;;;;;;;;3.00;3.00;;;;;24.64;49.65;99226.06;5051597;28;45224;-81
2023/06/09 00:16:24;;;;;;;;;3.67;3.00;;;;;24.60;50.33;99227.16;5047523;28;45559;-81
2023/06/09 00:18:53;;;;;;;;;2.33;2.33;;;;;24.38;50.50;99225.50;5057523;28;45662;-80
2023/06/09 00:21:19;;;;;;;;;3.67;3.33;;;;;24.46;51.00;99240.28;5054898;28;45480;-78
2023/06/09 00:23:48;;;;;;;;;2.33;2.33;;;;;24.14;50.99;99197.31;5044087;28;45374;-78
2023/06/09 00:26:14;;;;;;;;;3.67;3.33;;;;;24.29;51.21;99227.72;5035836;28;45451;-80
2023/06/09 00:28:42;;;;;;;;;3.67;3.67;;;;;24.21;51.20;99220.97;5037736;28;45524;-79
2023/06/09 00:31:08;;;;;;;;;3.67;3.00;;;;;24.13;51.53;99212.47;5037783;28;45520;-81
2023/06/09 00:33:34;;;;;;;;;3.00;3.00;;;;;24.08;52.44;99229.63;5036255;28;45479;-79
2023/06/09 00:35:59;;;;;;;;;4.33;3.00;;;;;23.74;53.19;99194.66;5029770;28;45579;-81
2023/06/09 00:38:25;;;;;;;;;2.00;2.00;;;;;23.74;54.30;99209.81;5050679;28;45335;-81
2023/06/09 00:40:50;;;;;;;;;2.00;2.00;;;;;23.48;53.30;99190.53;5036264;28;46023;-79
2023/06/09 00:43:16;;;;;;;;;4.00;3.67;;;;;23.73;53.85;99224.06;5053205;28;45425;-80
2023/06/09 00:45:41;;;;;;;;;3.00;3.00;;;;;23.64;53.63;99204.03;5046231;28;45624;-79
2023/06/09 00:48:07;;;;;;;;;3.00;3.00;;;;;23.59;54.34;99212.22;5039032;28;45517;-81
2023/06/09 00:50:33;;;;;;;;;4.00;3.33;;;;;23.41;54.94;99181.06;5035754;28;45634;-81
2023/06/09 00:52:59;;;;;;;;;3.00;3.00;;;;;23.55;54.67;99223.94;5037788;28;45311;-81
2023/06/09 00:55:27;;;;;;;;;4.00;4.00;;;;;23.49;54.57;99215.38;5038892;28;45588;-82
2023/06/09 00:57:56;;;;;;;;;3.00;3.00;;;;;23.36;54.46;99199.06;5039200;28;47261;-81
2023/06/09 01:00:27;;;;;;;;;3.00;3.00;;;;;23.33;54.02;99192.06;5039112;28;45429;-81
2023/06/09 01:03:02;;;;;;;;;3.00;3.00;;;;;23.46;54.58;99211.03;5039436;28;45599;-78
2023/06/09 01:05:34;;;;;;;;;3.00;2.67;;;;;23.48;54.01;99217.19;5039091;28;45577;-81
2023/06/09 01:08:25;;;;;;;;;3.00;3.00;;;;;23.37;54.60;99200.78;5038720;28;45527;-79
2023/06/09 01:11:02;;;;;;;;;2.00;2.00;;;;;23.36;54.74;99199.06;5040353;28;45378;-81
2023/06/09 01:14:00;;;;;;;;;2.33;2.33;;;;;23.27;54.82;99188.81;5056890;28;45416;-79
2023/06/09 01:17:08;;;;;;;;;3.00;3.00;;;;;23.23;55.04;99196.06;5042353;28;45392;-80
2023/06/09 01:19:47;;;;;;;;;3.00;2.00;;;;;23.11;55.62;99186.78;5035609;28;47262;-81
2023/06/09 01:22:37;;;;;;;;;3.00;3.00;;;;;23.19;56.16;99208.63;5051520;28;45179;-80
2023/06/09 01:25:06;;;;;;;;;2.67;2.67;;;;;23.17;55.65;99202.50;5051442;28;45351;-81
2023/06/09 01:27:36;;;;;;;;;2.33;2.33;;;;;23.02;55.15;99173.91;5036083;28;45408;-81
2023/06/09 01:30:03;;;;;;;;;3.67;3.00;;;;;23.15;55.80;99199.03;5018872;28;45561;-80
2023/06/09 01:32:30;;;;;;;;;4.67;4.00;;;;;23.04;56.59;99182.69;5037054;28;45283;-81
2023/06/09 01:34:55;;;;;;;;;3.67;3.67;;;;;22.86;56.77;99162.09;5019066;28;45324;-81
2023/06/09 01:37:22;;;;;;;;;2.67;2.00;;;;;23.03;56.47;99197.78;5046816;28;45436;-81
2023/06/09 01:39:50;;;;;;;;;3.00;3.00;;;;;22.86;56.19;99162.09;5034976;28;45553;-81
2023/06/09 01:42:15;;;;;;;;;16.00;13.67;;;;;22.82;56.64;99169.38;5053840;28;45473;-81
2023/06/09 01:44:41;;;;;;;;;4.00;4.00;;;;;22.95;56.80;99201.69;5055205;28;45449;-81
2023/06/09 01:47:07;;;;;;;;;4.00;2.33;;;;;22.92;56.86;99199.13;5040255;28;45564;-77
2023/06/09 01:49:57;;;;;;;;;3.00;3.00;;;;;22.86;57.43;99180.75;5049310;28;46136;-77
2023/06/09 01:52:57;;;;;;;;;3.00;3.00;;;;;22.42;57.38;99109.81;5047563;28;45757;-81
2023/06/09 01:55:35;;;;;;;;;2.00;2.00;;;;;22.96;57.12;99203.38;5021271;28;45363;-81
2023/06/09 01:58:07;;;;;;;;;4.00;4.00;;;;;22.84;57.05;99178.19;5037027;28;45393;-80
2023/06/09 02:00:33;;;;;;;;;3.00;3.00;;;;;23.02;57.06;99197.88;5036516;28;45596;-78
2023/06/09 02:03:04;;;;;;;;;4.00;3.33;;;;;22.74;57.62;99143.09;5034656;28;45408;-81
2023/06/09 02:05:32;;;;;;;;;3.00;3.00;;;;;23.03;57.53;99194.25;5046193;28;45503;-80
2023/06/09 02:07:58;;;;;;;;;4.00;3.00;;;;;22.92;57.60;99181.38;5042533;28;45551;-80
2023/06/09 02:10:24;;;;;;;;;3.00;3.00;;;;;23.05;56.86;99195.06;5051897;28;46159;-81
2023/06/09 02:12:50;;;;;;;;;3.00;3.00;;;;;22.88;56.78;99166.47;5046620;28;45297;-81
2023/06/09 02:15:15;;;;;;;;;4.67;4.00;;;;;22.96;57.41;99185.63;5050977;28;45406;-81
2023/06/09 02:17:42;;;;;;;;;3.00;3.00;;;;;22.83;57.22;99168.44;5036438;28;45565;-80
2023/06/09 02:20:09;;;;;;;;;2.33;2.33;;;;;22.94;57.23;99203.47;5036689;28;45960;-81
2023/06/09 02:22:38;;;;;;;;;5.00;5.00;;;;;22.86;57.33;99194.06;5052679;28;45552;-80
2023/06/09 02:25:04;;;;;;;;;3.00;3.00;;;;;22.74;58.44;99188.34;5050857;28;45337;-80
2023/06/09 02:27:30;;;;;;;;;4.00;4.00;;;;;22.66;58.74;99186.91;5035632;28;45486;-81
2023/06/09 02:29:56;;;;;;;;;4.00;4.00;;;;;22.59;58.93;99173.84;5036264;28;45966;-80
2023/06/09 02:32:22;;;;;;;;;3.33;3.00;;;;;22.53;58.68;99184.75;5052921;28;45410;-80
2023/06/09 02:34:47;;;;;;;;;3.67;3.00;;;;;22.60;58.84;99185.34;5050696;28;45362;-81
2023/06/09 02:37:13;;;;;;;;;3.00;3.00;;;;;22.55;58.68;99179.38;5048876;28;45475;-81
2023/06/09 02:39:39;;;;;;;;;3.67;3.00;;;;;22.53;59.36;99183.91;5044104;28;45476;-82
2023/06/09 02:42:05;;;;;;;;;4.00;4.00;;;;;22.40;60.27;99181.75;5055159;28;46461;-80
2023/06/09 02:44:37;;;;;;;;;2.00;2.00;;;;;22.16;61.54;99183.56;5040339;28;45482;-82
2023/06/09 02:47:04;;;;;;;;;4.00;3.67;;;;;22.08;61.90;99195.41;5040574;28;45233;-82
2023/06/09 02:49:30;;;;;;;;;3.00;3.00;;;;;21.87;61.45;99166.06;5054212;28;46160;-80
2023/06/09 02:51:55;;;;;;;;;2.00;2.00;;;;;21.75;60.70;99137.31;5042598;28;45556;-80
2023/06/09 02:54:21;;;;;;;;;4.00;4.00;;;;;22.07;60.71;99183.91;5039760;28;45508;-81
2023/06/09 02:56:47;;;;;;;;;3.00;3.00;;;;;22.01;60.58;99184.16;5039866;28;45438;-79
2023/06/09 02:59:12;;;;;;;;;3.67;3.67;;;;;21.93;60.19;99160.50;5039586;28;45390;-82
2023/06/09 03:01:39;;;;;;;;;4.00;4.00;;;;;22.20;59.97;99200.25;5037830;28;45621;-82
2023/06/09 03:04:08;;;;;;;;;4.00;4.00;;;;;22.25;60.03;99198.31;5040093;28;45295;-82
2023/06/09 03:06:36;;;;;;;;;5.00;4.00;;;;;22.13;59.45;99172.16;5050291;28;45271;-82
2023/06/09 03:09:02;;;;;;;;;3.33;3.00;;;;;22.11;59.91;99168.69;5052439;28;45556;-82
2023/06/09 03:11:29;;;;;;;;;3.00;3.00;;;;;22.31;59.56;99194.53;5040497;28;45419;-82
2023/06/09 03:13:54;;;;;;;;;2.00;1.33;;;;;22.20;59.64;99177.19;5058729;28;45393;-82
2023/06/09 03:16:21;;;;;;;;;4.00;4.00;;;;;22.22;59.49;99177.09;5038483;28;45562;-78
2023/06/09 03:18:47;;;;;;;;;3.00;3.00;;;;;22.33;59.67;99180.25;5037879;28;46678;-78
2023/06/09 03:21:13;;;;;;;;;2.33;2.33;;;;;22.28;59.85;99160.06;5048152;28;45169;-81
2023/06/09 03:23:40;;;;;;;;;4.33;4.33;;;;;22.24;59.17;99159.31;5044699;28;45287;-81
2023/06/09 03:26:06;;;;;;;;;4.00;4.00;;;;;22.37;59.31;99171.22;5038399;28;45514;-82
2023/06/09 03:28:32;;;;;;;;;4.00;3.33;;;;;22.47;59.07;99176.16;5044711;28;45516;-82
2023/06/09 03:30:58;;;;;;;;;4.00;4.00;;;;;22.50;58.87;99181.34;5048547;28;45563;-83
2023/06/09 03:33:25;;;;;;;;;3.33;3.33;;;;;22.48;59.24;99185.88;5037237;28;45577;-83
2023/06/09 03:35:51;;;;;;;;;4.33;3.00;;;;;22.35;58.75;99158.91;5054390;28;45508;-83
2023/06/09 03:38:20;;;;;;;;;3.67;3.00;;;;;22.44;59.11;99170.03;5038200;28;46130;-82
2023/06/09 03:40:48;;;;;;;;;3.67;3.67;;;;;22.41;58.97;99159.50;5020413;28;45394;-82
2023/06/09 03:43:13;;;;;;;;;3.33;3.33;;;;;22.37;59.34;99149.06;5035048;28;45411;-83
2023/06/09 03:45:39;;;;;;;;;3.33;3.00;;;;;22.51;59.70;99173.31;5038765;28;45633;-80
2023/06/09 03:48:06;;;;;;;;;5.00;4.00;;;;;22.31;59.16;99139.53;5052097;28;47410;-82
2023/06/09 03:50:32;;;;;;;;;4.00;3.67;;;;;22.47;58.57;99161.06;5036981;28;45427;-81
2023/06/09 03:52:58;;;;;;;;;5.00;4.00;;;;;22.44;58.96;99156.75;5037327;28;45569;-81
2023/06/09 03:55:25;;;;;;;;;5.00;5.00;;;;;22.54;58.55;99175.88;5049047;28;45367;-81
2023/06/09 03:57:50;;;;;;;;;4.00;4.00;;;;;22.56;58.19;99167.78;5043312;28;45347;-82
2023/06/09 04:00:17;;;;;;;;;3.67;3.33;;;;;22.36;58.62;99129.59;5038989;28;45387;-79
2023/06/09 04:02:44;;;;;;;;;4.00;4.00;;;;;22.69;58.03;99177.00;5051458;28;45365;-80
2023/06/09 04:05:10;;;;;;;;;4.00;4.00;;;;;22.63;59.53;99179.94;5038160;28;45525;-80
2023/06/09 04:07:35;;;;;;;;;5.33;4.00;;;;;22.60;59.41;99177.38;5036343;28;45612;-82
2023/06/09 04:10:02;;;;;;;;;3.00;3.00;;;;;22.48;59.77;99160.13;5042720;28;45464;-82
2023/06/09 04:12:28;;;;;;;;;4.00;4.00;;;;;22.57;59.88;99172.19;5057775;28;45433;-82
2023/06/09 04:14:55;;;;;;;;;4.00;3.00;;;;;22.38;59.76;99145.47;5049427;28;45586;-81
2023/06/09 04:17:22;;;;;;;;;4.67;4.00;;;;;22.59;59.17;99183.66;5038728;28;45377;-82
2023/06/09 04:19:48;;;;;;;;;4.33;4.33;;;;;22.52;58.94;99175.06;5038144;28;45522;-81
2023/06/09 04:22:13;;;;;;;;;4.00;4.00;;;;;22.57;59.61;99178.38;5037869;28;45449;-81
2023/06/09 04:24:39;;;;;;;;;3.67;3.67;;;;;22.64;60.03;99185.19;5046224;28;45736;-81
2023/06/09 04:27:05;;;;;;;;;3.33;3.33;;;;;22.61;59.45;99195.94;5044663;28;45701;-82
2023/06/09 04:29:33;;;;;;;;;4.00;4.00;;;;;22.61;59.28;99190.63;5037513;28;45443;-80
2023/06/09 04:32:00;;;;;;;;;4.00;4.00;;;;;22.57;58.89;99183.69;5037877;28;45351;-81
2023/06/09 04:34:29;;;;;;;;;5.00;5.00;;;;;22.77;58.94;99214.81;5045955;28;45292;-82
2023/06/09 04:36:59;;;;;;;;;5.00;5.00;;;;;22.82;58.15;99215.50;5057438;28;45299;-81
2023/06/09 04:39:28;;;;;;;;;5.00;4.67;;;;;22.88;58.02;99209.06;5035998;28;45492;-82
2023/06/09 04:41:54;;;;;;;;;4.67;4.33;;;;;22.88;57.71;99205.50;5039055;28;45568;-82
2023/06/09 04:44:20;;;;;;;;;3.00;3.00;;;;;22.98;57.28;99214.88;5057263;28;45504;-82
2023/06/09 04:46:46;;;;;;;;;3.33;3.33;;;;;22.89;57.22;99194.81;5039005;28;47917;-81
2023/06/09 04:49:13;;;;;;;;;3.00;3.00;;;;;23.05;56.97;99216.38;5039813;28;45469;-79
2023/06/09 04:51:48;;;;;;;;;3.33;3.33;;;;;23.09;56.52;99220.63;5024503;28;45359;-81
2023/06/09 04:54:18;;;;;;;;;3.33;3.33;;;;;22.99;56.83;99208.59;5046759;28;45460;-82
2023/06/09 04:56:51;;;;;;;;;5.00;4.33;;;;;22.98;56.31;99194.44;5051071;28;46073;-80
2023/06/09 04:59:17;;;;;;;;;3.33;3.33;;;;;23.14;56.45;99221.31;5048818;28;45612;-82
2023/06/09 05:01:46;;;;;;;;;5.67;5.00;;;;;22.99;56.28;99185.50;5042041;28;45449;-78
2023/06/09 05:04:12;;;;;;;;;4.00;3.00;;;;;23.03;56.33;99194.25;5055203;28;45700;-81
2023/06/09 05:06:38;;;;;;;;;4.33;4.33;;;;;23.22;56.53;99224.50;5054624;28;46170;-81
2023/06/09 05:09:07;;;;;;;;;5.67;5.00;;;;;23.15;56.65;99212.38;5052064;28;45512;-82
2023/06/09 05:11:34;;;;;;;;;4.00;3.33;;;;;23.22;56.21;99220.97;5054941;28;45598;-81
2023/06/09 05:14:00;;;;;;;;;4.67;3.00;;;;;23.25;56.02;99225.31;5055711;28;45516;-79
2023/06/09 05:16:27;;;;;;;;;5.00;5.00;;;;;23.26;56.71;99222.59;5055468;28;45406;-81
2023/06/09 05:18:53;;;;;;;;;5.33;5.00;;;;;23.18;56.36;99212.25;5026766;28;45799;-80
2023/06/09 05:21:19;;;;;;;;;5.00;3.67;;;;;23.11;56.78;99202.78;5035530;28;45424;-80
2023/06/09 05:23:48;;;;;;;;;4.00;3.00;;;;;23.27;55.55;99228.75;5041074;28;45575;-82
2023/06/09 05:26:13;;;;;;;;;6.00;6.00;;;;;23.22;56.08;99208.53;5037905;28;47268;-79
2023/06/09 05:28:40;;;;;;;;;5.00;5.00;;;;;23.33;56.11;99210.69;5036464;28;45473;-80
2023/06/09 05:31:06;;;;;;;;;4.00;4.00;;;;;23.39;55.87;99217.56;5046757;28;45303;-81
2023/06/09 05:33:32;;;;;;;;;3.33;3.33;;;;;23.49;55.58;99213.56;5048841;28;45683;-80
2023/06/09 05:35:58;;;;;;;;;4.33;4.00;;;;;23.42;55.82;99202.31;5037867;28;46073;-81
2023/06/09 05:38:25;;;;;;;;;5.00;4.00;;;;;23.58;55.85;99230.97;5032399;28;45564;-80
2023/06/09 05:40:52;;;;;;;;;5.00;4.00;;;;;23.69;55.63;99233.13;5038672;28;45502;-80
2023/06/09 05:43:18;;;;;;;;;5.33;4.67;;;;;23.72;55.08;99209.00;5039859;28;45466;-80
2023/06/09 05:45:43;;;;;;;;;4.33;4.33;;;;;24.06;55.01;99234.16;5036079;28;46758;-80
2023/06/09 05:48:09;;;;;;;;;4.00;4.00;;;;;24.15;54.69;99212.38;5039318;28;45495;-78
2023/06/09 05:50:34;;;;;;;;;3.00;3.00;;;;;24.30;53.97;99224.13;5058041;28;45489;-81
2023/06/09 05:53:00;;;;;;;;;4.00;4.00;;;;;24.47;53.94;99225.97;5038553;28;45673;-80
2023/06/09 05:55:26;;;;;;;;;4.00;4.00;;;;;24.67;53.33;99233.94;5048720;28;45383;-80
2023/06/09 05:57:52;;;;;;;;;4.00;4.00;;;;;24.76;54.00;99217.44;5048048;28;45377;-81
2023/06/09 06:00:19;;;;;;;;;8.00;7.00;;;;;26.12;51.94;99207.75;5040328;28;45490;-81
2023/06/09 06:02:45;;;;;;;;;4.00;4.00;;;;;28.54;46.78;99223.66;5035228;28;45611;-78
2023/06/09 06:05:12;;;;;;;;;5.33;5.00;;;;;28.40;45.70;99207.56;5043579;28;45338;-78
2023/06/09 06:07:37;;;;;;;;;5.33;5.33;;;;;29.79;44.12;99205.34;5055052;28;45481;-78
2023/06/09 06:10:04;;;;;;;;;3.00;3.00;;;;;31.01;41.16;99223.44;5055579;28;47043;-78
2023/06/09 06:12:33;;;;;;;;;4.00;3.00;;;;;29.78;42.33;99209.00;5055337;28;45446;-78
2023/06/09 06:14:59;;;;;;;;;5.00;4.67;;;;;32.46;38.33;99250.78;5053125;28;46252;-78
2023/06/09 06:17:25;;;;;;;;;3.00;3.00;;;;;32.71;37.22;99244.25;5050964;28;45616;-78
2023/06/09 06:19:51;;;;;;;;;5.00;4.00;;;;;31.07;39.56;99234.63;5051531;28;45903;-79
2023/06/09 06:22:17;;;;;;;;;6.33;6.00;;;;;30.07;41.98;99247.31;5051465;28;45428;-77
2023/06/09 06:24:42;;;;;;;;;4.00;4.00;;;;;29.35;42.58;99249.66;5048557;28;46357;-78
2023/06/09 06:27:08;;;;;;;;;5.00;4.00;;;;;28.80;43.47;99269.47;5055368;28;45446;-78
2023/06/09 06:29:33;;;;;;;;;6.00;4.33;;;;;28.39;44.59;99272.97;5039936;28;45312;-79
2023/06/09 06:32:00;;;;;;;;;5.67;5.00;;;;;28.20;45.21;99279.53;5047889;28;45419;-78
2023/06/09 06:34:29;;;;;;;;;5.00;4.67;;;;;27.95;46.29;99278.38;5053176;28;46039;-78
2023/06/09 06:36:56;;;;;;;;;6.00;5.33;;;;;27.77;46.52;99287.53;5053369;28;45290;-78
2023/06/09 06:39:21;;;;;;;;;4.33;4.33;;;;;27.61;47.04;99290.28;5052203;28;45673;-79
2023/06/09 06:41:47;;;;;;;;;6.00;6.00;;;;;27.40;47.55;99280.81;5053469;28;45477;-78
2023/06/09 06:44:13;;;;;;;;;6.00;5.67;;;;;27.35;47.78;99283.78;5046212;28;46072;-78
2023/06/09 06:46:39;;;;;;;;;6.00;6.00;;;;;27.30;47.91;99292.13;5042932;28;45426;-78
2023/06/09 06:49:04;;;;;;;;;6.00;5.00;;;;;27.16;48.36;99298.25;5035159;28;45443;-78
2023/06/09 06:51:30;;;;;;;;;5.00;5.00;;;;;26.81;48.44;99257.44;5043081;28;45729;-77
2023/06/09 06:53:55;;;;;;;;;7.67;6.00;;;;;27.07;48.44;99301.47;5056574;28;46069;-78
2023/06/09 06:56:22;;;;;;;;;5.67;4.67;;;;;26.86;49.02;99282.16;5040479;28;45410;-78
2023/06/09 06:58:47;;;;;;;;;7.33;7.00;;;;;26.67;49.14;99276.97;5038111;28;45665;-78
2023/06/09 07:01:17;;;;;;;;;6.33;6.00;;;;;26.68;49.44;99302.81;5050694;28;47152;-79
2023/06/09 07:03:42;;;;;;;;;5.67;5.33;;;;;26.82;49.29;99311.88;5033897;28;47085;-77
2023/06/09 07:06:09;;;;;;;;;5.00;4.00;;;;;26.96;48.96;99323.53;5051471;28;45481;-76
2023/06/09 07:08:35;;;;;;;;;5.33;5.00;;;;;28.38;47.97;99349.16;5051208;28;45710;-76
2023/06/09 07:11:01;;;;;;;;;5.33;5.33;;;;;30.97;41.46;99327.97;5042953;28;45631;-77
2023/06/09 07:13:26;;;;;;;;;6.33;6.00;;;;;30.29;42.82;99322.06;5052641;28;46106;-75
2023/06/09 07:15:52;;;;;;;;;6.00;6.00;;;;;29.87;42.87;99318.72;5050893;28;45743;-76
2023/06/09 07:18:17;;;;;;;;;4.67;4.67;;;;;29.68;43.20;99335.25;5052817;28;45204;-77
2023/06/09 07:20:43;;;;;;;;;5.67;5.67;;;;;29.43;43.51;99319.09;5031037;28;45468;-77
2023/06/09 07:23:08;;;;;;;;;5.67;5.33;;;;;29.34;43.90;99329.47;5033228;28;46226;-78
2023/06/09 07:25:34;;;;;;;;;6.33;6.00;;;;;29.42;43.88;99330.78;5047152;28;45545;-79
2023/06/09 07:28:00;;;;;;;;;4.33;4.00;;;;;29.17;44.46;99318.13;5053266;28;45325;-80
2023/06/09 07:30:26;;;;;;;;;6.00;5.00;;;;;29.49;44.26;99335.66;5057808;28;45417;-80
2023/06/09 07:32:52;;;;;;;;;5.67;4.67;;;;;30.63;40.86;99340.38;5052412;28;45503;-79
2023/06/09 07:35:19;;;;;;;;;5.00;5.00;;;;;33.31;37.28;99339.38;5051394;28;45536;-77
2023/06/09 07:37:46;;;;;;;;;4.00;3.00;;;;;32.43;37.09;99319.47;5049528;28;45417;-78
2023/06/09 07:40:12;;;;;;;;;2.67;2.67;;;;;32.07;38.42;99323.25;5035765;28;45597;-78
2023/06/09 07:42:38;;;;;;;;;3.00;3.00;;;;;32.48;37.86;99328.06;5051683;28;46325;-78
2023/06/09 07:45:04;;;;;;;;;3.33;3.00;;;;;32.19;38.03;99327.72;5057554;28;45572;-78
2023/06/09 07:47:30;;;;;;;;;4.00;4.00;;;;;31.21;38.52;99284.81;5058914;28;45391;-79
2023/06/09 07:49:55;;;;;;;;;4.33;3.33;;;;;32.92;37.33;99325.44;5040677;28;45394;-80
2023/06/09 07:52:21;;;;;;;;;4.00;3.00;;;;;33.49;35.88;99329.69;5046257;28;46091;-76
2023/06/09 07:54:46;;;;;;;;;4.00;4.00;;;;;35.42;33.08;99319.00;5055038;28;45910;-77
2023/06/09 07:57:12;;;;;;;;;4.67;4.00;;;;;36.02;32.11;99337.81;5038997;28;45509;-78
2023/06/09 07:59:37;;;;;;;;;2.67;2.67;;;;;35.14;32.81;99338.84;5039841;28;45476;-78
2023/06/09 08:02:03;;;;;;;;;2.67;2.67;;;;;36.16;31.83;99303.91;5038391;28;45759;-79
2023/06/09 08:04:29;;;;;;;;;8.00;7.33;;;;;38.18;28.94;99333.56;5054091;28;45514;-77
2023/06/09 08:06:58;;;;;;;;;3.00;3.00;;;;;39.44;27.16;99342.94;5020389;28;45586;-80
2023/06/09 08:09:25;;;;;;;;;2.67;2.67;;;;;40.87;26.54;99324.91;5053154;28;45390;-80
2023/06/09 08:11:50;;;;;;;;;3.33;3.00;;;;;42.02;23.73;99321.31;5036378;28;48557;-80
2023/06/09 08:14:17;;;;;;;;;3.67;3.67;;;;;42.04;24.13;99335.69;5037757;28;45439;-78
2023/06/09 08:16:43;;;;;;;;;3.00;3.00;;;;;41.96;23.59;99332.97;5029664;28;45514;-80
2023/06/09 08:19:08;;;;;;;;;1.67;1.67;;;;;43.05;21.68;99341.50;5036382;28;45498;-80
2023/06/09 08:21:34;;;;;;;;;3.67;3.67;;;;;44.03;21.19;99339.09;5052528;28;46250;-79
2023/06/09 08:23:59;;;;;;;;;1.67;1.67;;;;;44.81;20.91;99340.81;5028183;28;45409;-80
2023/06/09 08:26:25;;;;;;;;;2.33;2.33;;;;;45.62;19.70;99328.94;5038709;28;45519;-80
2023/06/09 08:28:50;;;;;;;;;2.00;2.00;;;;;46.12;19.84;99353.38;5035793;28;45306;-78
2023/06/09 08:31:16;;;;;;;;;2.67;2.67;;;;;46.72;18.20;99342.16;5037384;28;45446;-79
2023/06/09 08:33:42;;;;;;;;;2.33;2.33;;;;;45.33;19.66;99349.50;5053239;28;45379;-78
2023/06/09 08:36:07;;;;;;;;;2.00;2.00;;;;;43.33;20.68;99350.94;5038760;28;45491;-80
2023/06/09 08:38:34;;;;;;;;;3.33;3.00;;;;;41.81;22.43;99343.94;5056757;28;45342;-80
2023/06/09 08:41:07;;;;;;;;;2.33;2.33;;;;;42.56;21.76;99349.53;5056980;28;45471;-79
2023/06/09 08:43:33;;;;;;;;;2.00;2.00;;;;;43.91;20.44;99346.16;5023315;28;45536;-79
2023/06/09 08:46:01;;;;;;;;;2.00;2.00;;;;;45.07;19.87;99337.34;5052819;28;45372;-79
2023/06/09 08:48:30;;;;;;;;;3.00;2.33;;;;;46.00;19.36;99328.31;5044849;28;45323;-79
2023/06/09 08:50:57;;;;;;;;;9.33;8.33;;;;;46.08;19.04;99344.66;5045334;28;46239;-79
2023/06/09 08:53:24;;;;;;;;;2.67;2.67;;;;;43.94;20.29;99333.94;5037426;28;45587;-78
2023/06/09 08:55:51;;;;;;;;;3.33;2.67;;;;;42.01;22.03;99330.53;5041472;28;45504;-78
2023/06/09 08:58:18;;;;;;;;;4.67;4.33;;;;;40.58;23.72;99355.63;5038651;28;45582;-79
2023/06/09 09:00:44;;;;;;;;;2.00;2.00;;;;;39.25;23.94;99344.06;5043863;28;46171;-78
2023/06/09 09:03:09;;;;;;;;;3.33;3.33;;;;;38.40;25.35;99353.09;5034922;28;45479;-79
2023/06/09 09:05:35;;;;;;;;;2.67;2.00;;;;;37.27;27.03;99343.88;5053379;28;45401;-79
2023/06/09 09:08:00;;;;;;;;;3.00;3.00;;;;;36.71;27.81;99360.25;5044350;28;45438;-80
2023/06/09 09:10:27;;;;;;;;;3.00;3.00;;;;;35.99;28.65;99368.00;5044483;28;46051;-79
2023/06/09 09:12:54;;;;;;;;;2.00;2.00;;;;;35.33;28.79;99367.88;5052090;28;45879;-78
2023/06/09 09:15:24;;;;;;;;;3.00;3.00;;;;;34.70;29.84;99371.72;5056042;28;45476;-80
2023/06/09 09:17:50;;;;;;;;;2.00;2.00;;;;;34.13;31.25;99363.09;5049000;28;45484;-79
2023/06/09 09:20:16;;;;;;;;;2.67;2.67;;;;;33.84;31.84;99376.44;5035616;28;45317;-79
2023/06/09 09:22:50;;;;;;;;;3.00;3.00;;;;;33.38;32.44;99380.31;5036234;28;45393;-78
2023/06/09 09:25:26;;;;;;;;;2.33;2.33;;;;;32.89;33.05;99382.53;5039730;28;45396;-77
2023/06/09 09:28:05;;;;;;;;;2.67;2.33;;;;;32.38;33.82;99369.47;5028101;28;45303;-80
2023/06/09 09:30:42;;;;;;;;;2.00;2.00;;;;;32.02;34.32;99382.22;5033591;28;45541;-79
2023/06/09 09:33:13;;;;;;;;;2.67;2.67;;;;;31.64;34.98;99377.91;5036477;28;45543;-77
2023/06/09 09:35:43;;;;;;;;;3.00;3.00;;;;;31.19;35.44;99367.72;5046849;28;45628;-78
2023/06/09 09:38:16;;;;;;;;;3.00;2.33;;;;;31.00;36.24;99380.81;5055999;28;45589;-79
2023/06/09 09:40:53;;;;;;;;;2.00;2.00;;;;;30.51;36.50;99347.50;5038676;28;46291;-79
2023/06/09 09:43:20;;;;;;;;;5.00;4.00;;;;;30.49;36.67;99368.31;5046747;28;45425;-78
2023/06/09 09:45:48;;;;;;;;;4.00;4.00;;;;;30.47;37.30;99381.88;5035282;28;45340;-78
2023/06/09 09:48:15;;;;;;;;;4.67;4.67;;;;;30.30;37.28;99372.31;5051282;28;45389;-80
2023/06/09 09:50:43;;;;;;;;;4.00;4.00;;;;;30.56;37.99;99368.72;5034793;28;45335;-78
2023/06/09 09:53:09;;;;;;;;;4.00;3.00;;;;;30.95;37.50;99397.34;5037783;28;45391;-79
2023/06/09 09:55:37;;;;;;;;;4.00;4.00;;;;;31.63;36.52;99384.25;5047828;28;45453;-80
2023/06/09 09:58:05;;;;;;;;;6.33;5.00;;;;;32.37;35.57;99378.56;5036477;28;45478;-79
2023/06/09 10:00:35;;;;;;;;;5.33;4.00;;;;;33.05;34.89;99366.75;5034540;28;45379;-79
2023/06/09 10:03:05;;;;;;;;;0.67;0.67;;;;;33.33;33.98;99391.53;5023322;28;45402;-80
2023/06/09 10:05:33;;;;;;;;;4.33;4.00;;;;;33.22;33.62;99378.03;5056392;28;45240;-81
2023/06/09 10:08:03;;;;;;;;;3.00;3.00;;;;;32.93;33.66;99369.56;5034752;28;45402;-78
2023/06/09 10:10:30;;;;;;;;;4.00;4.00;;;;;32.61;34.60;99365.84;5036707;28;45389;-80
2023/06/09 10:12:57;;;;;;;;;4.67;4.00;;;;;32.28;34.69;99369.34;5037682;28;45481;-79
2023/06/09 10:15:24;;;;;;;;;2.00;2.00;;;;;32.21;35.35;99397.81;5055480;28;45462;-80
2023/06/09 10:17:52;;;;;;;;;4.67;4.33;;;;;31.85;36.22;99372.66;5042532;28;45545;-81
2023/06/09 10:20:19;;;;;;;;;1.67;1.67;;;;;31.55;36.99;99386.69;5035764;28;45398;-79
2023/06/09 10:22:46;;;;;;;;;4.00;4.00;;;;;31.46;37.00;99388.25;5036221;28;45530;-81
2023/06/09 10:25:12;;;;;;;;;4.00;3.67;;;;;31.33;36.46;99401.75;5036311;28;45283;-80
2023/06/09 10:27:39;;;;;;;;;3.33;3.33;;;;;31.11;37.29;99362.03;5036766;28;45429;-79
2023/06/09 10:30:08;;;;;;;;;5.00;5.00;;;;;30.85;37.77;99366.63;5036515;28;46285;-80
2023/06/09 10:32:38;;;;;;;;;4.67;3.67;;;;;31.14;36.89;99380.69;5036236;28;45434;-79
2023/06/09 10:35:06;;;;;;;;;5.00;5.00;;;;;31.39;36.76;99366.22;5036192;28;45455;-78
2023/06/09 10:37:34;;;;;;;;;6.67;6.67;;;;;31.60;37.04;99373.72;5036727;28;45465;-79
2023/06/09 10:40:25;;;;;;;;;4.00;3.67;;;;;31.90;36.65;99378.59;5036651;28;45304;-79
2023/06/09 10:43:04;;;;;;;;;6.00;5.00;;;;;32.27;35.83;99363.09;5018036;28;45471;-79
2023/06/09 10:45:55;;;;;;;;;3.33;3.33;;;;;32.96;35.00;99364.78;5036731;28;45415;-80
2023/06/09 10:48:43;;;;;;;;;1.67;1.67;;;;;33.85;32.86;99351.94;5018421;28;45627;-80
2023/06/09 10:51:26;;;;;;;;;3.00;3.00;;;;;34.91;32.90;99362.63;5042561;28;45727;-79
2023/06/09 10:54:12;;;;;;;;;2.00;2.00;;;;;35.34;30.61;99348.72;5056778;28;45330;-79
2023/06/09 10:56:42;;;;;;;;;2.67;2.67;;;;;35.86;30.07;99350.31;5041890;28;45354;-78
2023/06/09 10:59:26;;;;;;;;;2.00;1.00;;;;;36.10;29.08;99347.94;5049310;28;45573;-79
2023/06/09 11:02:03;;;;;;;;;3.00;2.67;;;;;36.59;28.46;99348.66;5043043;28;47652;-79
2023/06/09 11:04:37;;;;;;;;;3.00;2.00;;;;;36.77;28.25;99343.31;5040144;28;45354;-78
2023/06/09 11:07:18;;;;;;;;;4.00;3.33;;;;;36.97;27.98;99340.47;5049033;28;45461;-78
2023/06/09 11:09:47;;;;;;;;;3.67;3.00;;;;;36.92;28.17;99343.63;5044087;28;45368;-77
2023/06/09 11:12:38;;;;;;;;;3.00;2.33;;;;;36.57;28.24;99325.31;5039821;28;45528;-78
2023/06/09 11:15:06;;;;;;;;;3.00;3.00;;;;;36.50;29.25;99337.81;5021599;28;45495;-78
2023/06/09 11:17:45;;;;;;;;;2.00;2.00;;;;;36.49;28.45;99328.81;5055237;28;45705;-78
2023/06/09 11:20:17;;;;;;;;;2.00;2.00;;;;;36.81;28.32;99342.00;5054533;28;45549;-78
2023/06/09 11:22:44;;;;;;;;;1.67;1.33;;;;;36.88;27.28;99342.22;5029910;28;46884;-78
2023/06/09 11:25:37;;;;;;;;;5.00;4.67;;;;;36.70;27.54;99347.63;5045220;28;45508;-77
2023/06/09 11:28:05;;;;;;;;;4.00;2.00;;;;;36.69;27.25;99342.31;5036266;28;45602;-78
2023/06/09 11:30:32;;;;;;;;;2.00;0.33;;;;;36.71;26.73;99351.19;5044602;28;45703;-78
2023/06/09 11:33:04;;;;;;;;;1.00;0.00;;;;;36.64;27.15;99340.06;5049888;28;45599;-78
2023/06/09 11:35:30;;;;;;;;;1.00;1.00;;;;;36.67;26.85;99342.50;5040452;28;45552;-79
2023/06/09 11:37:59;;;;;;;;;3.67;3.00;;;;;36.47;26.97;99344.44;5039656;28;45481;-78
2023/06/09 11:40:29;;;;;;;;;0.00;0.00;;;;;36.54;26.84;99331.91;5044873;28;45532;-78